createdAt,value
2022-10-30T00:02:23.338Z,11.27
2022-10-30T00:05:09.087Z,11.10
2022-10-30T00:07:58.960Z,11.40
2022-10-30T00:10:45.606Z,12.25
2022-10-30T00:13:31.164Z,10.27
2022-10-30T00:16:16.756Z,10.55
2022-10-30T00:19:02.056Z,10.35
2022-10-30T00:21:47.221Z,11.05
2022-10-30T00:24:32.762Z,10.52
2022-10-30T00:28:57.564Z,11.00
2022-10-30T00:31:43.088Z,11.75
2022-10-30T00:34:28.867Z,10.85
2022-10-30T00:37:14.396Z,11.18
2022-10-30T00:39:59.834Z,11.02
2022-10-30T00:42:45.593Z,10.85
2022-10-30T00:45:30.855Z,11.50
2022-10-30T00:48:16.541Z,10.73
2022-10-30T00:51:05.150Z,10.15
2022-10-30T00:53:51.478Z,11.15
2022-10-30T00:56:37.496Z,11.68
2022-10-30T00:59:28.265Z,11.63
2022-10-30T01:02:17.463Z,11.20
2022-10-30T01:05:04.210Z,12.00
2022-10-30T01:07:49.934Z,10.85
2022-10-30T01:10:38.813Z,10.85
2022-10-30T01:13:25.167Z,11.23
2022-10-30T01:16:21.980Z,10.80
2022-10-30T01:19:25.320Z,10.68
2022-10-30T01:22:25.991Z,10.60
2022-10-30T01:25:29.917Z,11.75
2022-10-30T01:28:25.778Z,11.20
2022-10-30T01:31:31.384Z,11.57
2022-10-30T01:34:37.968Z,10.57
2022-10-30T01:38:01.378Z,11.45
2022-10-30T01:40:47.132Z,11.25
2022-10-30T01:43:33.585Z,11.13
2022-10-30T01:47:10.387Z,11.30
2022-10-30T01:50:14.712Z,11.45
2022-10-30T01:53:26.782Z,11.95
2022-10-30T01:56:28.409Z,11.70
2022-10-30T01:59:34.078Z,10.18
2022-10-30T02:02:19.784Z,11.38
2022-10-30T02:05:08.754Z,11.77
2022-10-30T02:07:54.769Z,10.32
2022-10-30T02:10:42.934Z,11.27
2022-10-30T02:13:29.751Z,11.68
2022-10-30T02:16:15.866Z,10.75
2022-10-30T02:19:03.263Z,11.18
2022-10-30T02:21:52.221Z,12.90
2022-10-30T02:24:37.880Z,12.23
2022-10-30T02:27:23.100Z,11.95
2022-10-30T02:30:09.330Z,12.57
2022-10-30T02:32:54.700Z,12.13
2022-10-30T02:35:40.094Z,11.98
2022-10-30T02:38:26.523Z,13.40
2022-10-30T02:41:12.416Z,11.85
2022-10-30T02:43:57.687Z,11.85
2022-10-30T02:46:43.128Z,12.02
2022-10-30T02:49:28.640Z,12.05
2022-10-30T02:52:14.359Z,12.38
2022-10-30T02:55:00.727Z,13.05
2022-10-30T02:57:47.076Z,13.00
2022-10-30T03:00:32.778Z,13.20
2022-10-30T03:03:21.426Z,13.07
2022-10-30T03:06:11.912Z,13.27
2022-10-30T03:08:57.300Z,13.48
2022-10-30T03:11:44.380Z,14.48
2022-10-30T03:14:30.040Z,13.65
2022-10-30T03:17:15.383Z,14.30
2022-10-30T03:20:00.927Z,14.98
2022-10-30T03:22:46.426Z,14.05
2022-10-30T03:25:35.000Z,14.23
2022-10-30T03:28:24.882Z,13.38
2022-10-30T03:31:13.355Z,13.60
2022-10-30T03:34:01.971Z,14.18
2022-10-30T03:36:47.351Z,14.43
2022-10-30T03:39:32.875Z,13.90
2022-10-30T03:42:18.259Z,14.00
2022-10-30T03:45:04.832Z,14.40
2022-10-30T03:47:50.286Z,15.88
2022-10-30T03:50:35.460Z,13.48
2022-10-30T03:53:23.995Z,14.52
2022-10-30T03:56:10.074Z,14.27
2022-10-30T03:59:08.150Z,15.40
2022-10-30T04:01:56.948Z,15.35
2022-10-30T04:04:42.594Z,16.50
2022-10-30T04:07:27.810Z,15.70
2022-10-30T04:10:20.945Z,14.65
2022-10-30T04:13:11.048Z,14.60
2022-10-30T04:16:01.290Z,16.13
2022-10-30T04:18:46.774Z,15.80
2022-10-30T04:21:32.341Z,16.35
2022-10-30T04:24:18.890Z,15.18
2022-10-30T04:27:07.728Z,15.23
2022-10-30T04:29:53.239Z,16.58
2022-10-30T04:32:52.219Z,16.80
2022-10-30T04:35:38.439Z,17.38
2022-10-30T04:38:28.486Z,17.02
2022-10-30T04:41:15.263Z,16.67
2022-10-30T04:44:16.062Z,16.13
2022-10-30T04:47:01.717Z,16.83
2022-10-30T04:49:47.178Z,17.60
2022-10-30T04:52:33.048Z,16.67
2022-10-30T04:55:18.547Z,17.23
2022-10-30T04:58:07.272Z,17.88
2022-10-30T05:01:01.972Z,18.95
2022-10-30T05:03:50.683Z,17.85
2022-10-30T05:06:38.958Z,19.10
2022-10-30T05:09:24.588Z,19.42
2022-10-30T05:12:10.942Z,19.60
2022-10-30T05:15:07.813Z,20.23
2022-10-30T05:17:55.507Z,20.67
2022-10-30T05:20:40.732Z,19.55
2022-10-30T05:23:30.870Z,18.50
2022-10-30T05:26:19.491Z,17.27
2022-10-30T05:29:04.965Z,18.58
2022-10-30T05:31:50.541Z,17.75
2022-10-30T05:34:37.593Z,19.42
2022-10-30T05:37:23.117Z,20.33
2022-10-30T05:40:09.316Z,19.92
2022-10-30T05:42:54.528Z,20.95
2022-10-30T05:45:40.984Z,19.88
2022-10-30T05:48:26.380Z,19.23
2022-10-30T05:51:13.043Z,20.92
2022-10-30T05:54:03.382Z,21.20
2022-10-30T05:56:49.575Z,20.73
2022-10-30T05:59:34.732Z,21.33
2022-10-30T06:05:21.168Z,20.23
2022-10-30T06:08:07.626Z,21.17
2022-10-30T06:10:54.543Z,20.90
2022-10-30T06:13:51.604Z,21.38
2022-10-30T06:16:40.851Z,20.67
2022-10-30T06:19:45.103Z,21.92
2022-10-30T06:23:03.995Z,21.15
2022-10-30T06:26:01.911Z,22.00
2022-10-30T06:28:54.423Z,21.45
2022-10-30T06:31:41.361Z,21.45
2022-10-30T06:34:27.377Z,21.95
2022-10-30T06:37:13.235Z,22.00
2022-10-30T06:40:04.801Z,21.33
2022-10-30T06:43:09.629Z,21.35
2022-10-30T06:45:58.871Z,23.50
2022-10-30T06:48:47.850Z,23.23
2022-10-30T06:51:35.075Z,23.02
2022-10-30T06:54:21.354Z,21.75
2022-10-30T06:57:30.421Z,22.35
2022-10-30T07:00:30.520Z,21.52
2022-10-30T07:03:31.339Z,21.38
2022-10-30T07:06:16.870Z,21.15
2022-10-30T07:09:02.335Z,21.25
2022-10-30T07:11:47.770Z,20.25
2022-10-30T07:14:37.838Z,20.65
2022-10-30T07:17:38.865Z,20.95
2022-10-30T07:20:32.601Z,19.50
2022-10-30T07:23:18.250Z,18.02
2022-10-30T07:26:04.573Z,18.98
2022-10-30T07:29:02.387Z,19.75
2022-10-30T07:32:03.905Z,18.23
2022-10-30T07:34:58.031Z,18.40
2022-10-30T07:37:53.800Z,18.23
2022-10-30T07:40:40.331Z,18.48
2022-10-30T07:43:52.696Z,17.95
2022-10-30T07:47:07.235Z,17.60
2022-10-30T07:50:12.921Z,15.68
2022-10-30T07:52:58.435Z,17.02
2022-10-30T07:55:46.015Z,17.92
2022-10-30T07:58:31.334Z,15.60
2022-10-30T08:01:34.620Z,16.15
2022-10-30T08:04:46.350Z,17.02
2022-10-30T08:07:50.971Z,16.23
2022-10-30T08:10:36.672Z,15.30
2022-10-30T08:13:25.203Z,14.98
2022-10-30T08:16:10.516Z,16.05
2022-10-30T08:18:55.976Z,15.98
2022-10-30T08:21:46.442Z,15.57
2022-10-30T08:24:36.493Z,13.75
2022-10-30T08:27:21.852Z,13.70
2022-10-30T08:30:08.081Z,14.13
2022-10-30T08:32:57.895Z,14.35
2022-10-30T08:36:02.996Z,14.00
2022-10-30T08:38:50.984Z,13.70
2022-10-30T08:41:59.576Z,13.10
2022-10-30T08:44:48.892Z,12.40
2022-10-30T08:48:01.344Z,12.00
2022-10-30T08:50:47.938Z,13.10
2022-10-30T08:53:39.016Z,13.05
2022-10-30T08:56:29.789Z,12.40
2022-10-30T08:59:24.967Z,12.48
2022-10-30T09:02:15.112Z,13.60
2022-10-30T09:05:19.561Z,12.77
2022-10-30T09:08:33.948Z,15.68
2022-10-30T09:11:29.234Z,13.93
2022-10-30T09:14:16.404Z,13.60
2022-10-30T09:17:01.873Z,13.45
2022-10-30T09:22:43.302Z,12.45
2022-10-30T09:25:29.736Z,12.60
2022-10-30T09:28:25.644Z,12.57
2022-10-30T09:31:36.643Z,12.85
2022-10-30T09:34:23.777Z,12.18
2022-10-30T09:37:16.374Z,12.45
2022-10-30T09:40:06.167Z,11.60
2022-10-30T09:43:01.281Z,13.45
2022-10-30T09:46:05.833Z,12.15
2022-10-30T09:49:15.970Z,12.07
2022-10-30T09:52:28.148Z,12.07
2022-10-30T09:55:29.506Z,11.98
2022-10-30T09:58:41.228Z,12.38
2022-10-30T10:01:48.098Z,12.18
2022-10-30T10:04:42.022Z,11.82
2022-10-30T10:07:34.847Z,11.75
2022-10-30T10:10:36.301Z,10.57
2022-10-30T10:13:32.640Z,11.55
2022-10-30T10:16:20.501Z,10.80
2022-10-30T10:19:22.108Z,11.48
2022-10-30T10:22:28.191Z,11.32
2022-10-30T10:25:16.262Z,10.90
2022-10-30T10:28:29.776Z,12.10
2022-10-30T10:31:36.923Z,10.30
2022-10-30T10:34:35.633Z,11.82
2022-10-30T10:37:52.380Z,11.95
2022-10-30T10:40:56.184Z,10.32
2022-10-30T10:43:53.598Z,11.35
2022-10-30T10:47:08.825Z,11.48
2022-10-30T10:50:10.399Z,11.25
2022-10-30T10:53:09.597Z,10.80
2022-10-30T10:55:59.892Z,10.20
2022-10-30T10:59:01.016Z,11.77
2022-10-30T11:02:01.504Z,10.57
2022-10-30T11:04:52.252Z,9.80
2022-10-30T11:07:48.572Z,9.15
2022-10-30T11:10:33.915Z,9.55
2022-10-30T11:13:19.323Z,9.43
2022-10-30T11:16:30.688Z,9.73
2022-10-30T11:19:18.480Z,10.25
2022-10-30T11:22:13.307Z,9.95
2022-10-30T11:25:20.325Z,9.95
2022-10-30T11:28:05.969Z,11.30
2022-10-30T11:30:52.337Z,9.70
2022-10-30T11:33:37.639Z,11.93
2022-10-30T11:36:25.036Z,10.02
2022-10-30T11:39:31.864Z,10.43
2022-10-30T11:42:23.364Z,11.07
2022-10-30T11:45:30.870Z,11.52
2022-10-30T11:48:32.697Z,11.10
2022-10-30T11:51:31.600Z,11.63
2022-10-30T11:54:22.308Z,11.98
2022-10-30T11:57:37.891Z,11.80
2022-10-30T12:00:26.352Z,11.07
2022-10-30T12:03:30.010Z,10.52
2022-10-30T12:06:22.520Z,11.75
2022-10-30T12:09:12.590Z,11.68
2022-10-30T12:12:10.043Z,11.98
2022-10-30T12:14:56.008Z,11.35
2022-10-30T12:17:51.839Z,12.02
2022-10-30T12:20:45.656Z,11.40
2022-10-30T12:23:32.337Z,12.80
2022-10-30T12:26:18.037Z,11.63
2022-10-30T12:29:14.471Z,11.98
2022-10-30T12:32:06.182Z,11.55
2022-10-30T12:35:05.433Z,11.88
2022-10-30T12:37:53.895Z,11.63
2022-10-30T12:40:44.112Z,12.32
2022-10-30T12:43:34.886Z,11.82
2022-10-30T12:46:29.193Z,11.40
2022-10-30T12:49:40.463Z,12.27
2022-10-30T12:52:35.550Z,10.50
2022-10-30T12:55:45.874Z,12.60
2022-10-30T12:58:44.115Z,11.98
2022-10-30T13:01:51.815Z,12.90
2022-10-30T13:04:41.729Z,13.88
2022-10-30T13:07:30.581Z,12.63
2022-10-30T13:10:27.310Z,11.60
2022-10-30T13:13:23.478Z,11.57
2022-10-30T13:16:28.643Z,10.80
2022-10-30T13:25:19.948Z,11.65
2022-10-30T13:28:31.117Z,10.55
2022-10-30T13:31:44.707Z,9.77
2022-10-30T13:34:58.766Z,11.10
2022-10-30T13:37:59.127Z,10.88
2022-10-30T13:41:18.631Z,10.25
2022-10-30T13:44:24.458Z,10.38
2022-10-30T13:47:47.505Z,10.15
2022-10-30T13:50:54.712Z,10.18
2022-10-30T13:53:46.679Z,10.07
2022-10-30T13:56:33.868Z,10.75
2022-10-30T13:59:34.823Z,10.02
2022-10-30T14:02:37.097Z,10.02
2022-10-30T14:05:50.792Z,8.40
2022-10-30T14:08:48.044Z,8.55
2022-10-30T14:11:36.333Z,8.52
2022-10-30T14:14:30.143Z,8.57
2022-10-30T14:17:17.367Z,7.97
2022-10-30T14:20:12.143Z,7.35
2022-10-30T14:23:21.783Z,7.97
2022-10-30T14:26:10.170Z,7.95
2022-10-30T14:28:56.896Z,8.15
2022-10-30T14:31:42.102Z,6.35
2022-10-30T14:34:57.547Z,6.28
2022-10-30T14:37:45.635Z,6.43
2022-10-30T14:40:38.680Z,6.78
2022-10-30T14:43:35.788Z,6.47
2022-10-30T14:46:30.269Z,5.78
2022-10-30T14:49:36.698Z,3.83
2022-10-30T14:52:25.112Z,3.67
2022-10-30T14:55:31.931Z,3.83
2022-10-30T14:58:25.321Z,4.07
2022-10-30T15:01:48.169Z,3.97
2022-10-30T15:04:45.251Z,4.13
2022-10-30T15:07:57.356Z,4.40
2022-10-30T15:10:59.600Z,4.47
2022-10-30T15:13:52.358Z,4.47
2022-10-30T15:16:40.605Z,5.00
2022-10-30T15:19:26.188Z,6.07
2022-10-30T15:22:19.031Z,5.45
2022-10-30T15:25:06.399Z,5.90
2022-10-30T15:27:55.320Z,5.03
2022-10-30T15:31:02.844Z,5.80
2022-10-30T15:33:48.480Z,6.00
2022-10-30T15:36:41.946Z,6.18
2022-10-30T15:39:27.354Z,6.45
2022-10-30T15:42:16.430Z,6.50
2022-10-30T15:45:05.399Z,6.20
2022-10-30T15:47:59.731Z,6.38
2022-10-30T15:50:53.151Z,6.57
2022-10-30T15:53:48.232Z,5.80
2022-10-30T15:56:44.547Z,6.10
2022-10-30T15:59:39.703Z,5.40
2022-10-30T16:02:26.905Z,5.78
2022-10-30T16:05:23.187Z,5.10
2022-10-30T16:08:24.289Z,5.20
2022-10-30T16:11:10.081Z,5.13
2022-10-30T16:14:04.270Z,5.47
2022-10-30T16:16:50.978Z,5.40
2022-10-30T16:19:44.510Z,5.65
2022-10-30T16:22:41.005Z,6.28
2022-10-30T16:25:26.431Z,6.93
2022-10-30T16:28:32.677Z,6.90
2022-10-30T16:31:42.930Z,6.32
2022-10-30T16:34:37.655Z,7.85
2022-10-30T16:37:27.637Z,7.95
2022-10-30T16:40:14.569Z,7.93
2022-10-30T16:43:03.294Z,8.52
2022-10-30T16:45:52.887Z,6.57
2022-10-30T16:48:38.558Z,7.85
2022-10-30T16:51:24.407Z,7.18
2022-10-30T16:54:24.018Z,7.43
2022-10-30T16:57:33.413Z,7.78
2022-10-30T17:00:27.309Z,8.15
2022-10-30T17:03:13.307Z,7.07
2022-10-30T17:06:07.602Z,8.30
2022-10-30T17:08:57.226Z,9.17
2022-10-30T17:11:47.987Z,9.23
2022-10-30T17:14:44.672Z,9.85
2022-10-30T17:17:34.236Z,8.27
2022-10-30T17:20:19.709Z,9.60
2022-10-30T17:23:19.535Z,9.90
2022-10-30T17:26:09.720Z,10.68
2022-10-30T17:28:55.146Z,9.40
2022-10-30T17:31:40.250Z,10.18
2022-10-30T17:34:26.773Z,9.85
2022-10-30T17:37:12.376Z,8.88
2022-10-30T17:39:57.754Z,8.88
2022-10-30T17:42:43.527Z,8.38
2022-10-30T17:45:28.794Z,6.60
2022-10-30T17:48:16.599Z,7.25
2022-10-30T17:51:02.323Z,7.25
2022-10-30T17:53:48.546Z,7.57
2022-10-30T17:56:34.508Z,6.97
2022-10-30T17:59:19.810Z,8.23
2022-10-30T18:02:20.160Z,8.15
2022-10-30T18:05:21.394Z,7.18
2022-10-30T18:08:06.998Z,5.57
2022-10-30T18:10:52.315Z,5.47
2022-10-30T18:13:37.974Z,5.43
2022-10-30T18:16:23.801Z,5.03
2022-10-30T18:19:11.256Z,4.45
2022-10-30T18:21:56.328Z,4.43
2022-10-30T18:24:42.851Z,3.83
2022-10-30T18:27:28.130Z,2.70
2022-10-30T18:30:15.209Z,2.20
2022-10-30T18:33:01.386Z,2.83
2022-10-30T18:35:50.746Z,2.50
2022-10-30T18:38:35.966Z,2.53
2022-10-30T18:41:32.858Z,2.03
2022-10-30T18:44:21.181Z,2.13
2022-10-30T18:47:10.986Z,2.15
2022-10-30T18:49:56.651Z,1.55
2022-10-30T18:52:42.148Z,1.80
2022-10-30T18:55:35.245Z,1.60
2022-10-30T18:58:20.429Z,2.10
2022-10-30T19:01:11.990Z,2.58
2022-10-30T19:04:00.964Z,1.52
2022-10-30T19:06:46.891Z,2.10
2022-10-30T19:09:32.511Z,2.83
2022-10-30T19:12:18.156Z,2.97
2022-10-30T19:15:21.146Z,2.25
2022-10-30T19:18:06.780Z,2.53
2022-10-30T19:21:14.538Z,2.17
2022-10-30T19:24:01.139Z,3.00
2022-10-30T19:26:46.285Z,3.20
2022-10-30T19:29:34.602Z,3.95
2022-10-30T19:32:19.988Z,3.35
2022-10-30T19:35:06.505Z,2.60
2022-10-30T19:37:51.884Z,3.75
2022-10-30T19:40:39.059Z,3.67
2022-10-30T19:43:24.691Z,2.53
2022-10-30T19:46:14.578Z,2.15
2022-10-30T19:49:00.661Z,1.98
2022-10-30T19:51:46.539Z,2.42
2022-10-30T19:54:32.150Z,2.58
2022-10-30T20:00:13.329Z,2.88
2022-10-30T20:03:00.002Z,2.50
2022-10-30T20:05:47.815Z,2.42
2022-10-30T20:08:34.444Z,2.35
2022-10-30T20:11:20.057Z,2.17
2022-10-30T20:14:05.418Z,2.17
2022-10-30T20:16:50.999Z,2.72
2022-10-30T20:19:36.438Z,3.03
2022-10-30T20:22:27.159Z,2.65
2022-10-30T20:25:13.813Z,1.90
2022-10-30T20:28:13.266Z,2.10
2022-10-30T20:30:58.780Z,2.67
2022-10-30T20:33:44.030Z,2.40
2022-10-30T20:36:29.512Z,2.50
2022-10-30T20:39:14.929Z,2.50
2022-10-30T20:42:00.414Z,2.63
2022-10-30T20:44:46.675Z,2.75
2022-10-30T20:47:32.081Z,1.83
2022-10-30T20:50:19.368Z,2.72
2022-10-30T20:53:06.155Z,2.70
2022-10-30T20:55:52.018Z,3.00
2022-10-30T20:58:37.438Z,2.97
2022-10-30T21:01:22.990Z,2.42
2022-10-30T21:04:08.067Z,2.85
2022-10-30T21:06:55.823Z,2.67
2022-10-30T21:09:41.369Z,3.00
2022-10-30T21:12:26.884Z,2.90
2022-10-30T21:15:14.768Z,3.33
2022-10-30T21:18:00.650Z,3.03
2022-10-30T21:20:46.246Z,3.30
2022-10-30T21:23:32.053Z,4.03
2022-10-30T21:26:17.208Z,2.95
2022-10-30T21:29:02.816Z,3.72
2022-10-30T21:31:51.149Z,4.80
2022-10-30T21:34:36.841Z,4.10
2022-10-30T21:37:22.567Z,3.80
2022-10-30T21:40:08.783Z,3.53
2022-10-30T21:42:56.326Z,3.50
2022-10-30T21:45:43.835Z,2.85
2022-10-30T21:48:29.567Z,3.78
2022-10-30T21:51:20.592Z,3.05
2022-10-30T21:54:06.147Z,3.40
2022-10-30T21:56:52.167Z,3.40
2022-10-30T21:59:37.319Z,3.90
2022-10-30T22:02:22.692Z,4.55
2022-10-30T22:05:08.645Z,4.10
2022-10-30T22:07:57.114Z,4.05
2022-10-30T22:10:42.827Z,4.07
2022-10-30T22:13:30.399Z,3.85
2022-10-30T22:16:21.973Z,3.97
2022-10-30T22:19:10.323Z,4.07
2022-10-30T22:21:59.067Z,3.42
2022-10-30T22:24:44.346Z,3.95
2022-10-30T22:27:33.314Z,3.50
2022-10-30T22:30:18.578Z,3.10
2022-10-30T22:33:04.162Z,4.25
2022-10-30T22:35:49.678Z,4.30
2022-10-30T22:38:35.637Z,4.18
2022-10-30T22:41:27.105Z,3.85
2022-10-30T22:44:17.342Z,4.03
2022-10-30T22:47:02.720Z,3.88
2022-10-30T22:49:48.294Z,3.80
2022-10-30T22:52:33.983Z,3.75
2022-10-30T22:55:19.652Z,3.90
2022-10-30T22:58:07.805Z,4.03
2022-10-30T23:00:53.461Z,4.38
2022-10-30T23:03:39.662Z,4.90
2022-10-30T23:06:25.547Z,4.00
2022-10-30T23:09:19.490Z,4.53
2022-10-30T23:12:05.563Z,4.78
2022-10-30T23:14:51.030Z,5.53
2022-10-30T23:17:37.265Z,4.60
2022-10-30T23:20:22.903Z,5.78
2022-10-30T23:23:08.206Z,5.32
2022-10-30T23:25:54.017Z,5.43
2022-10-30T23:28:39.814Z,5.60
2022-10-30T23:31:33.461Z,5.65
2022-10-30T23:34:18.943Z,6.80
2022-10-30T23:37:07.226Z,6.10
2022-10-30T23:39:52.598Z,5.85
2022-10-30T23:42:41.352Z,6.22
2022-10-30T23:45:26.766Z,7.07
2022-10-30T23:48:11.966Z,5.63
2022-10-30T23:51:00.063Z,7.13
2022-10-30T23:53:45.563Z,6.90
2022-10-30T23:56:31.159Z,6.75
2022-10-30T23:59:19.411Z,6.97
